Time;durP1;ratioP1;P1;durP2;ratioP2;P2;SDS_P1;SDS_P2;PMS_P1;PMS_P2;Temp;Humidity;BMP_temperature;BMP_pressure;BME280_temperature;BME280_humidity;BME280_pressure;Samples;Min_cycle;Max_cycle;Signal;HPM_P1;HPM_P2
2023/03/30 00:00:27;;;;;;;3.38;2.55;;;;;;;;;;5012819;28;20629;-58
2023/03/30 00:02:53;;;;;;;4.88;1.95;;;;;;;;;;5009862;28;20057;-58
2023/03/30 00:05:22;;;;;;;3.42;1.65;;;;;;;;;;5010648;28;20120;-58
2023/03/30 00:07:49;;;;;;;4.70;1.90;;;;;;;;;;5011038;28;21042;-58
2023/03/30 00:10:16;;;;;;;10.95;2.25;;;;;;;;;;5011670;28;20050;-58
2023/03/30 00:12:44;;;;;;;4.72;2.13;;;;;;;;;;5012311;28;20081;-58
2023/03/30 00:15:11;;;;;;;5.47;2.20;;;;;;;;;;5012704;28;20072;-58
2023/03/30 00:17:37;;;;;;;5.03;1.50;;;;;;;;;;5009875;28;20535;-58
2023/03/30 00:20:07;;;;;;;4.68;1.77;;;;;;;;;;5011817;28;20521;-58
2023/03/30 00:22:33;;;;;;;5.55;2.40;;;;;;;;;;5012344;28;20097;-58
2023/03/30 00:24:59;;;;;;;17.25;2.58;;;;;;;;;;5012176;28;20088;-58
2023/03/30 00:27:26;;;;;;;4.40;1.80;;;;;;;;;;5013025;28;20117;-60
2023/03/30 00:29:52;;;;;;;5.88;1.85;;;;;;;;;;5009834;28;20053;-58
2023/03/30 00:32:18;;;;;;;9.25;2.15;;;;;;;;;;5010458;28;20184;-58
2023/03/30 00:34:44;;;;;;;3.38;1.80;;;;;;;;;;5008511;28;20050;-58
2023/03/30 00:37:10;;;;;;;5.15;2.00;;;;;;;;;;5013033;28;20421;-58
2023/03/30 00:39:37;;;;;;;7.93;2.38;;;;;;;;;;5008609;28;20052;-58
2023/03/30 00:42:03;;;;;;;4.70;1.80;;;;;;;;;;5043810;28;20428;-58
2023/03/30 00:44:47;;;;;;;9.32;2.95;;;;;;;;;;5011112;28;20598;-58
2023/03/30 00:47:14;;;;;;;5.20;2.45;;;;;;;;;;5011021;28;20042;-58
2023/03/30 00:49:40;;;;;;;6.00;1.95;;;;;;;;;;5011147;28;20034;-58
2023/03/30 00:52:07;;;;;;;8.50;2.53;;;;;;;;;;5008791;28;20176;-58
2023/03/30 00:54:33;;;;;;;6.50;3.28;;;;;;;;;;5009562;28;21158;-58
2023/03/30 00:56:59;;;;;;;8.75;2.22;;;;;;;;;;5010707;28;20092;-58
2023/03/30 00:59:26;;;;;;;6.07;2.67;;;;;;;;;;5026705;28;20077;-58
2023/03/30 01:01:52;;;;;;;8.15;2.42;;;;;;;;;;5006032;28;20045;-58
2023/03/30 01:04:19;;;;;;;3.95;2.40;;;;;;;;;;5012734;28;20048;-58
2023/03/30 01:06:46;;;;;;;4.97;2.25;;;;;;;;;;5011107;28;20563;-58
2023/03/30 01:09:14;;;;;;;8.20;1.98;;;;;;;;;;5010825;28;20042;-58
2023/03/30 01:11:40;;;;;;;5.70;2.80;;;;;;;;;;5011950;28;21157;-58
2023/03/30 01:14:07;;;;;;;4.50;2.08;;;;;;;;;;5012137;28;20066;-59
2023/03/30 01:16:49;;;;;;;5.43;2.53;;;;;;;;;;5042243;28;20122;-56
2023/03/30 01:19:15;;;;;;;5.32;2.70;;;;;;;;;;5009873;28;20492;-57
2023/03/30 01:22:03;;;;;;;5.05;2.65;;;;;;;;;;5012848;28;20045;-58
2023/03/30 01:24:41;;;;;;;4.50;2.65;;;;;;;;;;5011883;28;20065;-58
2023/03/30 01:27:14;;;;;;;4.38;2.72;;;;;;;;;;5009405;28;20046;-57
2023/03/30 01:29:47;;;;;;;6.35;2.58;;;;;;;;;;5011122;28;20042;-58
2023/03/30 01:32:13;;;;;;;5.90;2.13;;;;;;;;;;5012232;28;20105;-58
2023/03/30 01:34:42;;;;;;;5.18;2.28;;;;;;;;;;5012854;28;20045;-57
2023/03/30 01:37:26;;;;;;;3.58;1.52;;;;;;;;;;5012175;28;21298;-57
2023/03/30 01:40:25;;;;;;;5.30;2.00;;;;;;;;;;5012707;28;20133;-57
2023/03/30 01:43:00;;;;;;;4.00;1.90;;;;;;;;;;5007246;28;20492;-57
2023/03/30 01:45:43;;;;;;;7.45;2.70;;;;;;;;;;5007642;28;20100;-57
2023/03/30 01:48:09;;;;;;;2.35;1.60;;;;;;;;;;5009526;28;20046;-57
2023/03/30 01:50:38;;;;;;;5.30;1.92;;;;;;;;;;5011149;28;20562;-57
2023/03/30 01:53:10;;;;;;;4.32;1.80;;;;;;;;;;5009868;28;20133;-58
2023/03/30 01:55:49;;;;;;;4.50;1.63;;;;;;;;;;5010160;28;20432;-58
2023/03/30 01:58:42;;;;;;;6.18;1.77;;;;;;;;;;5041436;28;20634;-57
2023/03/30 02:01:07;;;;;;;;;;;;;;;;;;5008896;28;20056;-57
2023/03/30 02:03:37;;;;;;;5.30;1.80;;;;;;;;;;5006484;28;20440;-57
2023/03/30 02:06:08;;;;;;;6.45;2.05;;;;;;;;;;5010219;28;20072;-57
2023/03/30 02:08:35;;;;;;;4.90;2.05;;;;;;;;;;5009385;28;20046;-57
2023/03/30 02:11:02;;;;;;;5.45;2.58;;;;;;;;;;5042727;28;20452;-57
2023/03/30 02:13:29;;;;;;;6.32;2.38;;;;;;;;;;5008933;28;20658;-58
2023/03/30 02:15:57;;;;;;;6.07;2.65;;;;;;;;;;5041301;28;20038;-58
2023/03/30 02:18:24;;;;;;;4.50;2.13;;;;;;;;;;5009435;28;20086;-58
2023/03/30 02:20:50;;;;;;;5.63;2.80;;;;;;;;;;5005964;28;20042;-58
2023/03/30 02:23:17;;;;;;;4.68;1.77;;;;;;;;;;5008799;28;20092;-58
2023/03/30 02:25:44;;;;;;;4.60;2.10;;;;;;;;;;5009462;28;20160;-58
2023/03/30 02:28:10;;;;;;;4.18;1.98;;;;;;;;;;5025281;28;20104;-57
2023/03/30 02:30:39;;;;;;;6.68;3.03;;;;;;;;;;5010558;28;20053;-58
2023/03/30 02:33:06;;;;;;;9.13;2.03;;;;;;;;;;5010123;28;20053;-57
2023/03/30 02:35:32;;;;;;;8.02;2.15;;;;;;;;;;5013152;28;20174;-58
2023/03/30 02:37:58;;;;;;;6.65;1.67;;;;;;;;;;5008622;28;20052;-57
2023/03/30 02:40:31;;;;;;;5.88;2.28;;;;;;;;;;5010036;28;20595;-57
2023/03/30 02:43:15;;;;;;;4.35;2.10;;;;;;;;;;5010175;28;20057;-58
2023/03/30 02:45:44;;;;;;;3.80;1.85;;;;;;;;;;5009631;28;20068;-57
2023/03/30 02:48:36;;;;;;;5.20;1.95;;;;;;;;;;5008857;28;20052;-58
2023/03/30 02:51:02;;;;;;;4.30;2.17;;;;;;;;;;5007551;28;20378;-58
2023/03/30 02:53:31;;;;;;;4.93;2.00;;;;;;;;;;5007316;28;20050;-58
2023/03/30 02:55:59;;;;;;;3.70;2.25;;;;;;;;;;5011930;28;20046;-57
2023/03/30 02:58:32;;;;;;;4.60;1.85;;;;;;;;;;5013688;28;20053;-57
2023/03/30 03:01:18;;;;;;;4.70;1.88;;;;;;;;;;5012981;28;20109;-57
2023/03/30 03:03:46;;;;;;;7.18;1.95;;;;;;;;;;5011473;28;21252;-57
2023/03/30 03:06:13;;;;;;;5.00;2.47;;;;;;;;;;5012634;28;20030;-57
2023/03/30 03:08:40;;;;;;;5.30;2.00;;;;;;;;;;5011284;28;20041;-57
2023/03/30 03:11:07;;;;;;;5.78;1.75;;;;;;;;;;5014363;28;20046;-58
2023/03/30 03:13:35;;;;;;;8.35;2.40;;;;;;;;;;5011437;28;20527;-58
2023/03/30 03:16:02;;;;;;;4.13;1.90;;;;;;;;;;5013661;28;20046;-57
2023/03/30 03:18:29;;;;;;;10.63;2.65;;;;;;;;;;5012443;28;20144;-57
2023/03/30 03:20:55;;;;;;;5.43;2.53;;;;;;;;;;5013667;28;20042;-57
2023/03/30 03:23:22;;;;;;;5.13;1.48;;;;;;;;;;5010948;28;20038;-57
2023/03/30 03:25:48;;;;;;;5.13;1.60;;;;;;;;;;5011536;28;20053;-57
2023/03/30 03:28:14;;;;;;;12.18;2.78;;;;;;;;;;5013475;28;20042;-58
2023/03/30 03:30:40;;;;;;;5.00;2.15;;;;;;;;;;5012781;28;20034;-58
2023/03/30 03:33:06;;;;;;;6.80;2.20;;;;;;;;;;5012923;28;20199;-58
2023/03/30 03:35:33;;;;;;;4.45;1.88;;;;;;;;;;5013835;28;20038;-57
2023/03/30 03:37:59;;;;;;;8.55;1.80;;;;;;;;;;5014840;28;20659;-58
2023/03/30 03:40:25;;;;;;;6.15;2.10;;;;;;;;;;5013611;28;20046;-57
2023/03/30 03:42:51;;;;;;;7.18;1.95;;;;;;;;;;5009042;28;20571;-57
2023/03/30 03:45:17;;;;;;;10.15;3.05;;;;;;;;;;5013027;28;20149;-57
2023/03/30 03:47:43;;;;;;;6.28;2.03;;;;;;;;;;5011571;28;20132;-57
2023/03/30 03:50:10;;;;;;;6.15;1.83;;;;;;;;;;5027731;28;20038;-57
2023/03/30 03:52:36;;;;;;;3.33;1.70;;;;;;;;;;5010916;28;20053;-58
2023/03/30 03:55:03;;;;;;;3.70;1.98;;;;;;;;;;5011891;28;20149;-57
2023/03/30 03:57:29;;;;;;;4.93;2.78;;;;;;;;;;5010237;28;20038;-59
2023/03/30 03:59:56;;;;;;;5.75;2.45;;;;;;;;;;5012731;28;20046;-57
2023/03/30 04:02:23;;;;;;;4.80;2.80;;;;;;;;;;5010554;28;20054;-58
2023/03/30 04:04:50;;;;;;;7.03;2.53;;;;;;;;;;5013702;28;20038;-58
2023/03/30 04:07:16;;;;;;;4.35;2.10;;;;;;;;;;5010019;28;20133;-58
2023/03/30 04:09:42;;;;;;;6.75;1.80;;;;;;;;;;5011229;28;20046;-58
2023/03/30 04:12:08;;;;;;;6.75;2.03;;;;;;;;;;5009507;28;20132;-57
2023/03/30 04:14:34;;;;;;;5.75;2.50;;;;;;;;;;5011369;28;20048;-58
2023/03/30 04:17:01;;;;;;;7.88;3.28;;;;;;;;;;5011462;28;22736;-58
2023/03/30 04:19:30;;;;;;;7.07;2.97;;;;;;;;;;5010313;28;20046;-57
2023/03/30 04:21:57;;;;;;;7.78;2.60;;;;;;;;;;5012760;28;20049;-58
2023/03/30 04:24:26;;;;;;;3.20;2.78;;;;;;;;;;5012375;28;20046;-58
2023/03/30 04:26:52;;;;;;;6.18;2.53;;;;;;;;;;5012450;28;20120;-58
2023/03/30 04:29:19;;;;;;;3.90;1.77;;;;;;;;;;5010435;28;20042;-57
2023/03/30 04:31:46;;;;;;;3.97;1.85;;;;;;;;;;5009438;28;20940;-57
2023/03/30 04:34:15;;;;;;;6.25;1.90;;;;;;;;;;5012048;28;20165;-57
2023/03/30 04:36:44;;;;;;;4.63;2.92;;;;;;;;;;5012412;28;20189;-57
2023/03/30 04:39:10;;;;;;;9.18;2.33;;;;;;;;;;5012903;28;20125;-57
2023/03/30 04:41:37;;;;;;;9.02;2.88;;;;;;;;;;5013260;28;20038;-57
2023/03/30 04:44:04;;;;;;;4.13;1.83;;;;;;;;;;5013679;28;20042;-57
2023/03/30 04:46:30;;;;;;;5.97;2.03;;;;;;;;;;5009087;28;20120;-58
2023/03/30 04:48:56;;;;;;;4.88;2.10;;;;;;;;;;5010665;28;20084;-58
2023/03/30 04:51:22;;;;;;;10.73;3.90;;;;;;;;;;5012680;28;20049;-58
2023/03/30 04:53:49;;;;;;;8.55;3.10;;;;;;;;;;5011315;28;20418;-58
2023/03/30 04:56:15;;;;;;;5.15;1.83;;;;;;;;;;5008512;28;20038;-58
2023/03/30 04:58:41;;;;;;;4.43;1.67;;;;;;;;;;5011934;28;20102;-58
2023/03/30 05:01:07;;;;;;;6.82;2.40;;;;;;;;;;5010187;28;20050;-58
2023/03/30 05:03:34;;;;;;;3.58;1.73;;;;;;;;;;5013276;28;20046;-58
2023/03/30 05:06:00;;;;;;;7.50;2.30;;;;;;;;;;5010038;28;20518;-57
2023/03/30 05:08:27;;;;;;;3.63;1.67;;;;;;;;;;5008160;28;20049;-57
2023/03/30 05:10:53;;;;;;;6.75;2.08;;;;;;;;;;5002013;28;20046;-57
2023/03/30 05:13:19;;;;;;;8.38;3.17;;;;;;;;;;5004066;28;21825;-58
2023/03/30 05:15:45;;;;;;;4.18;2.63;;;;;;;;;;5008750;28;20038;-57
2023/03/30 05:18:11;;;;;;;8.23;2.15;;;;;;;;;;5007755;28;20065;-57
2023/03/30 05:20:37;;;;;;;6.20;2.25;;;;;;;;;;5006421;28;20157;-57
2023/03/30 05:23:03;;;;;;;10.35;3.63;;;;;;;;;;5012303;28;20145;-57
2023/03/30 05:25:30;;;;;;;14.00;3.65;;;;;;;;;;5007788;28;20543;-57
2023/03/30 05:27:56;;;;;;;4.15;1.67;;;;;;;;;;5010940;28;20101;-57
2023/03/30 05:30:23;;;;;;;9.27;2.63;;;;;;;;;;5008652;28;20049;-57
2023/03/30 05:32:49;;;;;;;6.70;2.10;;;;;;;;;;5010921;28;20046;-57
2023/03/30 05:35:15;;;;;;;7.13;2.67;;;;;;;;;;5009261;28;20045;-58
2023/03/30 05:37:41;;;;;;;11.82;2.28;;;;;;;;;;5010900;28;20812;-58
2023/03/30 05:40:11;;;;;;;9.15;3.50;;;;;;;;;;5013359;28;20041;-58
2023/03/30 05:42:37;;;;;;;4.85;1.90;;;;;;;;;;5010952;28;20045;-58
2023/03/30 05:45:03;;;;;;;8.90;2.28;;;;;;;;;;5011299;28;20116;-58
2023/03/30 05:47:29;;;;;;;8.50;3.55;;;;;;;;;;5009582;28;20077;-57
2023/03/30 05:49:55;;;;;;;9.32;2.53;;;;;;;;;;5012682;28;20461;-57
2023/03/30 05:52:22;;;;;;;9.07;2.10;;;;;;;;;;5010119;28;20042;-58
2023/03/30 05:54:48;;;;;;;6.53;2.05;;;;;;;;;;5009929;28;20524;-57
2023/03/30 05:57:14;;;;;;;8.00;2.28;;;;;;;;;;5011260;28;20049;-57
2023/03/30 05:59:41;;;;;;;16.45;2.83;;;;;;;;;;5014204;28;20042;-58
2023/03/30 06:02:07;;;;;;;7.80;2.83;;;;;;;;;;5007285;28;20049;-58
2023/03/30 06:04:33;;;;;;;6.53;2.65;;;;;;;;;;5006284;28;20048;-58
2023/03/30 06:07:00;;;;;;;6.35;2.40;;;;;;;;;;5009454;28;20041;-58
2023/03/30 06:09:26;;;;;;;5.00;2.30;;;;;;;;;;5009258;28;20065;-58
2023/03/30 06:11:52;;;;;;;9.43;2.15;;;;;;;;;;5012766;28;20074;-57
2023/03/30 06:14:18;;;;;;;15.02;3.63;;;;;;;;;;5041267;28;20053;-58
2023/03/30 06:16:44;;;;;;;5.32;2.00;;;;;;;;;;5005378;28;20057;-58
2023/03/30 06:19:11;;;;;;;14.15;3.88;;;;;;;;;;5008328;28;20042;-58
2023/03/30 06:21:37;;;;;;;10.38;2.85;;;;;;;;;;5009373;28;20608;-58
2023/03/30 06:24:03;;;;;;;8.68;2.17;;;;;;;;;;5009917;28;20096;-58
2023/03/30 06:26:29;;;;;;;10.82;3.00;;;;;;;;;;5008534;28;20046;-58
2023/03/30 06:28:55;;;;;;;8.15;2.63;;;;;;;;;;5012417;28;20042;-57
2023/03/30 06:31:21;;;;;;;13.80;2.75;;;;;;;;;;5022093;28;20045;-58
2023/03/30 06:33:49;;;;;;;9.50;3.67;;;;;;;;;;5010347;28;20076;-58
2023/03/30 06:36:15;;;;;;;8.88;3.08;;;;;;;;;;5011114;28;20077;-58
2023/03/30 06:38:44;;;;;;;13.55;2.90;;;;;;;;;;5011887;28;20547;-58
2023/03/30 06:41:11;;;;;;;12.52;3.17;;;;;;;;;;5013640;28;20153;-58
2023/03/30 06:43:38;;;;;;;11.90;3.08;;;;;;;;;;5011980;28;20054;-58
2023/03/30 06:46:05;;;;;;;5.78;2.85;;;;;;;;;;5007371;28;20082;-58
2023/03/30 06:48:31;;;;;;;12.05;3.28;;;;;;;;;;5006879;28;20562;-58
2023/03/30 06:50:58;;;;;;;10.98;3.50;;;;;;;;;;5011085;28;20603;-58
2023/03/30 06:53:24;;;;;;;11.93;2.65;;;;;;;;;;5008685;28;20089;-57
2023/03/30 06:55:55;;;;;;;9.75;2.85;;;;;;;;;;5006971;28;20479;-57
2023/03/30 06:58:22;;;;;;;10.55;2.83;;;;;;;;;;5015780;28;20393;-61
2023/03/30 07:00:48;;;;;;;12.07;2.55;;;;;;;;;;5014676;28;20046;-61
2023/03/30 07:03:17;;;;;;;7.60;3.83;;;;;;;;;;5016129;28;20042;-61
2023/03/30 07:05:46;;;;;;;13.70;4.35;;;;;;;;;;5014048;28;20121;-62
2023/03/30 07:08:13;;;;;;;13.13;3.03;;;;;;;;;;5013851;28;20397;-61
2023/03/30 07:10:39;;;;;;;9.68;2.75;;;;;;;;;;5015774;28;20046;-62
2023/03/30 07:13:06;;;;;;;10.75;2.92;;;;;;;;;;5015958;28;21024;-61
2023/03/30 07:15:32;;;;;;;12.20;2.38;;;;;;;;;;5015967;28;20042;-61
2023/03/30 07:17:58;;;;;;;6.78;2.53;;;;;;;;;;5014744;28;20073;-61
2023/03/30 07:20:25;;;;;;;9.02;2.47;;;;;;;;;;5015944;28;20038;-61
2023/03/30 07:22:51;;;;;;;10.40;3.10;;;;;;;;;;5015562;28;20042;-61
2023/03/30 07:25:17;;;;;;;13.75;2.90;;;;;;;;;;5015841;28;20502;-61
2023/03/30 07:27:43;;;;;;;9.40;3.80;;;;;;;;;;5017297;28;20601;-61
2023/03/30 07:30:10;;;;;;;12.93;2.40;;;;;;;;;;5014843;28;20043;-61
2023/03/30 07:32:36;;;;;;;6.03;2.70;;;;;;;;;;5016334;28;20049;-61
2023/03/30 07:35:03;;;;;;;10.90;2.42;;;;;;;;;;5017008;28;20481;-61
2023/03/30 07:37:29;;;;;;;10.68;2.83;;;;;;;;;;5016401;28;20046;-61
2023/03/30 07:39:56;;;;;;;8.02;2.88;;;;;;;;;;5015272;28;20041;-62
2023/03/30 07:42:22;;;;;;;4.97;2.58;;;;;;;;;;5016808;28;20058;-61
2023/03/30 07:44:48;;;;;;;10.40;2.92;;;;;;;;;;5014757;28;20590;-62
2023/03/30 07:47:14;;;;;;;9.25;2.58;;;;;;;;;;5014131;28;20472;-61
2023/03/30 07:49:41;;;;;;;9.00;3.28;;;;;;;;;;5015576;28;20038;-61
2023/03/30 07:52:07;;;;;;;15.23;3.88;;;;;;;;;;5016526;28;20615;-61
2023/03/30 07:54:33;;;;;;;11.90;3.22;;;;;;;;;;5016492;28;20136;-61
2023/03/30 07:57:00;;;;;;;10.23;2.90;;;;;;;;;;5014982;28;20043;-61
2023/03/30 07:59:26;;;;;;;9.82;3.88;;;;;;;;;;5013211;28;20034;-61
2023/03/30 08:01:53;;;;;;;11.27;3.50;;;;;;;;;;5013330;28;20042;-61
2023/03/30 08:04:19;;;;;;;15.57;4.35;;;;;;;;;;5013738;28;20050;-61
2023/03/30 08:06:46;;;;;;;8.60;2.08;;;;;;;;;;5015500;28;20149;-61
2023/03/30 08:09:12;;;;;;;22.67;4.30;;;;;;;;;;5015769;28;20206;-61
2023/03/30 08:11:38;;;;;;;10.65;3.33;;;;;;;;;;5016156;28;20045;-61
2023/03/30 08:14:04;;;;;;;11.65;4.03;;;;;;;;;;5007638;28;20046;-61
2023/03/30 08:16:31;;;;;;;13.70;4.20;;;;;;;;;;5015883;28;20084;-61
2023/03/30 08:18:57;;;;;;;13.00;2.85;;;;;;;;;;5014340;28;20156;-61
2023/03/30 08:21:24;;;;;;;11.02;4.45;;;;;;;;;;5016374;28;20045;-61
2023/03/30 08:23:51;;;;;;;11.68;3.63;;;;;;;;;;5015712;28;20061;-61
2023/03/30 08:26:17;;;;;;;9.60;3.58;;;;;;;;;;5015596;28;20041;-61
2023/03/30 08:28:43;;;;;;;9.13;4.22;;;;;;;;;;5009695;28;20110;-61
2023/03/30 08:31:09;;;;;;;15.77;3.67;;;;;;;;;;5013755;28;20429;-61
2023/03/30 08:33:36;;;;;;;20.40;4.03;;;;;;;;;;5011230;28;20060;-61
2023/03/30 08:36:03;;;;;;;16.52;3.30;;;;;;;;;;5015772;28;20141;-61
2023/03/30 08:38:29;;;;;;;13.65;4.95;;;;;;;;;;5013761;28;20492;-61
2023/03/30 08:40:55;;;;;;;10.55;2.78;;;;;;;;;;5015521;28;20049;-61
2023/03/30 08:43:24;;;;;;;11.45;3.55;;;;;;;;;;5015349;28;20097;-61
2023/03/30 08:45:51;;;;;;;16.95;4.25;;;;;;;;;;5014595;28;20034;-61
2023/03/30 08:48:19;;;;;;;8.98;3.03;;;;;;;;;;5031637;28;20105;-61
2023/03/30 08:50:59;;;;;;;14.43;3.42;;;;;;;;;;5014580;28;20113;-61
2023/03/30 08:53:27;;;;;;;19.33;5.20;;;;;;;;;;5014850;28;20045;-61
2023/03/30 08:55:57;;;;;;;12.50;4.68;;;;;;;;;;5013943;28;20524;-61
2023/03/30 08:58:23;;;;;;;15.88;3.90;;;;;;;;;;5013976;28;21131;-61
2023/03/30 09:00:53;;;;;;;20.02;4.88;;;;;;;;;;5014337;28;20057;-61
2023/03/30 09:03:29;;;;;;;12.85;3.45;;;;;;;;;;5014613;28;20046;-61
2023/03/30 09:05:58;;;;;;;15.55;3.60;;;;;;;;;;5015066;28;20156;-61
2023/03/30 09:08:28;;;;;;;13.82;3.67;;;;;;;;;;5013800;28;20686;-61
2023/03/30 09:10:58;;;;;;;20.70;4.25;;;;;;;;;;5013548;28;20112;-61
2023/03/30 09:13:27;;;;;;;14.98;4.00;;;;;;;;;;5013825;28;20169;-61
2023/03/30 09:16:01;;;;;;;12.68;4.10;;;;;;;;;;5013418;28;20058;-61
2023/03/30 09:18:31;;;;;;;16.48;3.90;;;;;;;;;;5030151;28;20054;-61
2023/03/30 09:21:01;;;;;;;14.80;4.07;;;;;;;;;;5013370;28;20113;-61
2023/03/30 09:23:28;;;;;;;12.00;4.57;;;;;;;;;;5013671;28;20049;-61
2023/03/30 09:25:54;;;;;;;18.40;3.53;;;;;;;;;;5012869;28;20042;-60
2023/03/30 09:28:31;;;;;;;14.68;3.67;;;;;;;;;;5013682;28;20070;-60
2023/03/30 09:31:04;;;;;;;18.40;4.43;;;;;;;;;;5029375;28;20052;-60
2023/03/30 09:33:47;;;;;;;16.08;5.25;;;;;;;;;;5014073;28;20532;-60
2023/03/30 09:36:36;;;;;;;15.80;5.85;;;;;;;;;;5010530;28;20052;-61
2023/03/30 09:39:08;;;;;;;19.92;4.32;;;;;;;;;;5014078;28;20618;-61
2023/03/30 09:41:34;;;;;;;;;;;;;;;;;;5015368;28;20620;-61
2023/03/30 09:44:01;;;;;;;15.45;4.78;;;;;;;;;;5014088;28;20029;-61
2023/03/30 09:46:27;;;;;;;10.35;3.80;;;;;;;;;;5012861;28;20089;-61
2023/03/30 09:48:53;;;;;;;14.85;5.53;;;;;;;;;;5015261;28;20042;-61
2023/03/30 09:51:19;;;;;;;12.43;3.42;;;;;;;;;;5013379;28;21967;-61
2023/03/30 09:53:47;;;;;;;14.18;5.28;;;;;;;;;;5014553;28;20708;-61
2023/03/30 09:56:18;;;;;;;14.60;4.78;;;;;;;;;;5012560;28;20096;-61
2023/03/30 09:58:45;;;;;;;8.63;3.40;;;;;;;;;;5015481;28;20054;-61
2023/03/30 10:01:17;;;;;;;13.07;5.32;;;;;;;;;;5012437;28;21784;-61
2023/03/30 10:03:44;;;;;;;26.85;6.13;;;;;;;;;;5013915;28;20049;-61
2023/03/30 10:06:14;;;;;;;17.38;4.45;;;;;;;;;;5010791;28;20101;-61
2023/03/30 10:08:51;;;;;;;14.63;3.95;;;;;;;;;;5014341;28;20576;-61
2023/03/30 10:11:21;;;;;;;21.60;5.13;;;;;;;;;;5012705;28;20053;-60
2023/03/30 10:13:50;;;;;;;17.10;4.32;;;;;;;;;;5015273;28;21009;-61
2023/03/30 10:16:26;;;;;;;14.95;4.00;;;;;;;;;;5012422;28;20120;-60
2023/03/30 10:18:54;;;;;;;23.38;6.28;;;;;;;;;;5014032;28;20105;-61
2023/03/30 10:21:25;;;;;;;14.52;3.67;;;;;;;;;;5014858;28;20038;-61
2023/03/30 10:24:20;;;;;;;17.38;4.72;;;;;;;;;;5045205;28;20116;-61
2023/03/30 10:26:49;;;;;;;18.23;6.00;;;;;;;;;;5013785;28;20041;-61
2023/03/30 10:29:21;;;;;;;11.50;6.43;;;;;;;;;;5013364;28;20554;-61
2023/03/30 10:31:48;;;;;;;10.23;2.97;;;;;;;;;;5013722;28;20896;-58
2023/03/30 10:34:16;;;;;;;9.45;3.10;;;;;;;;;;5045946;28;20189;-57
2023/03/30 10:36:42;;;;;;;15.90;4.05;;;;;;;;;;5010545;28;20176;-58
2023/03/30 10:39:19;;;;;;;13.18;4.47;;;;;;;;;;5014072;28;20050;-58
2023/03/30 10:41:46;;;;;;;16.15;5.57;;;;;;;;;;5044672;28;20280;-58
2023/03/30 10:44:26;;;;;;;14.85;5.22;;;;;;;;;;5013267;28;20548;-57
2023/03/30 10:46:56;;;;;;;9.05;4.28;;;;;;;;;;5012408;28;20045;-57
2023/03/30 10:49:25;;;;;;;9.70;4.15;;;;;;;;;;5014409;28;20057;-58
2023/03/30 10:51:58;;;;;;;12.45;4.35;;;;;;;;;;5011607;28;20049;-58
2023/03/30 10:54:39;;;;;;;16.38;4.72;;;;;;;;;;5014125;28;20524;-57
2023/03/30 10:57:19;;;;;;;14.07;4.53;;;;;;;;;;5012153;28;20682;-57
2023/03/30 10:59:45;;;;;;;18.27;3.72;;;;;;;;;;5013408;28;20356;-57
2023/03/30 11:02:21;;;;;;;9.18;3.95;;;;;;;;;;5011561;28;20598;-57
2023/03/30 11:04:58;;;;;;;18.92;4.78;;;;;;;;;;5013717;28;21423;-57
2023/03/30 11:07:24;;;;;;;10.73;2.92;;;;;;;;;;5012212;28;20046;-57
2023/03/30 11:09:53;;;;;;;15.27;3.78;;;;;;;;;;5014092;28;20037;-57
2023/03/30 11:12:21;;;;;;;10.80;2.17;;;;;;;;;;5013508;28;20532;-57
2023/03/30 11:14:52;;;;;;;15.13;5.15;;;;;;;;;;5013644;28;20038;-58
2023/03/30 11:17:35;;;;;;;11.18;3.85;;;;;;;;;;5016741;28;20421;-57
2023/03/30 11:20:22;;;;;;;11.75;3.50;;;;;;;;;;5016738;28;20113;-57
2023/03/30 11:22:53;;;;;;;10.88;3.97;;;;;;;;;;5017751;28;20054;-57
2023/03/30 11:25:28;;;;;;;16.08;3.70;;;;;;;;;;5015054;28;20121;-58
2023/03/30 11:27:58;;;;;;;9.55;3.05;;;;;;;;;;5016750;28;20050;-58
2023/03/30 11:30:26;;;;;;;12.77;4.03;;;;;;;;;;5015861;28;20689;-57
2023/03/30 11:32:56;;;;;;;9.77;3.00;;;;;;;;;;5016831;28;20394;-58
2023/03/30 11:35:30;;;;;;;18.05;4.38;;;;;;;;;;5014928;28;20078;-58
2023/03/30 11:38:02;;;;;;;8.80;3.70;;;;;;;;;;5015424;28;20567;-57
2023/03/30 11:40:50;;;;;;;13.05;4.38;;;;;;;;;;5015566;28;20499;-58
2023/03/30 11:43:18;;;;;;;11.73;3.58;;;;;;;;;;5015595;28;20049;-58
2023/03/30 11:45:51;;;;;;;13.02;3.80;;;;;;;;;;5016519;28;20101;-57
2023/03/30 11:48:30;;;;;;;10.40;4.00;;;;;;;;;;5017264;28;20038;-57
2023/03/30 11:51:00;;;;;;;14.82;3.45;;;;;;;;;;5016885;28;20116;-57
2023/03/30 11:53:26;;;;;;;14.77;3.63;;;;;;;;;;5015137;28;20080;-57
2023/03/30 11:56:01;;;;;;;14.95;4.30;;;;;;;;;;5030382;28;20052;-58
2023/03/30 11:58:56;;;;;;;10.50;2.92;;;;;;;;;;5016152;28;20042;-58
2023/03/30 12:01:41;;;;;;;19.92;4.93;;;;;;;;;;5014354;28;20096;-58
2023/03/30 12:04:07;;;;;;;10.07;4.00;;;;;;;;;;5015994;28;20128;-58
2023/03/30 12:06:36;;;;;;;13.75;4.28;;;;;;;;;;5014859;28;20049;-58
2023/03/30 12:09:22;;;;;;;14.80;3.70;;;;;;;;;;5016119;28;20574;-57
2023/03/30 12:12:10;;;;;;;7.78;3.78;;;;;;;;;;5015551;28;20042;-58
2023/03/30 12:14:40;;;;;;;13.68;4.10;;;;;;;;;;5016391;28;20041;-58
2023/03/30 12:17:18;;;;;;;12.30;3.40;;;;;;;;;;5012919;28;20160;-58
2023/03/30 12:19:48;;;;;;;15.43;4.10;;;;;;;;;;5015598;28;20121;-58
2023/03/30 12:22:15;;;;;;;12.80;4.85;;;;;;;;;;5015806;28;20034;-58
2023/03/30 12:24:53;;;;;;;16.02;4.15;;;;;;;;;;5017065;28;20038;-57
2023/03/30 12:27:21;;;;;;;15.98;3.95;;;;;;;;;;5013533;28;20492;-58
2023/03/30 12:29:52;;;;;;;12.88;3.80;;;;;;;;;;5032022;28;20132;-58
2023/03/30 12:32:24;;;;;;;12.80;3.47;;;;;;;;;;5014503;28;20721;-58
2023/03/30 12:34:51;;;;;;;8.05;2.63;;;;;;;;;;5014769;28;20049;-57
2023/03/30 12:37:20;;;;;;;6.72;2.65;;;;;;;;;;5013897;28;20489;-57
2023/03/30 12:40:09;;;;;;;9.77;3.42;;;;;;;;;;5016080;28;20520;-57
2023/03/30 12:42:45;;;;;;;6.05;2.28;;;;;;;;;;5015413;28;20081;-57
2023/03/30 12:45:20;;;;;;;3.97;1.33;;;;;;;;;;5015985;28;20111;-57
2023/03/30 12:48:02;;;;;;;6.63;2.05;;;;;;;;;;5014623;28;20053;-57
2023/03/30 12:50:34;;;;;;;12.10;2.38;;;;;;;;;;5015537;28;20042;-58
2023/03/30 12:53:19;;;;;;;9.73;2.08;;;;;;;;;;5015258;28;20121;-57
2023/03/30 12:55:47;;;;;;;6.85;2.78;;;;;;;;;;5014988;28;20049;-57
2023/03/30 12:58:23;;;;;;;9.60;2.72;;;;;;;;;;5016022;28;20046;-57
2023/03/30 13:01:21;;;;;;;9.85;2.08;;;;;;;;;;5015684;28;20038;-58
2023/03/30 13:09:51;;;;;;;8.73;3.55;;;;;;;;;;4997544;28;20077;-57
2023/03/30 13:12:20;;;;;;;4.57;2.35;;;;;;;;;;5001822;28;20096;-57
2023/03/30 13:14:46;;;;;;;13.65;2.85;;;;;;;;;;4997860;28;20421;-58
2023/03/30 13:17:18;;;;;;;8.15;3.45;;;;;;;;;;4997235;28;20822;-57
2023/03/30 13:22:28;;;;;;;11.55;2.97;;;;;;;;;;4998197;28;20085;-57
2023/03/30 13:25:00;;;;;;;12.35;2.97;;;;;;;;;;4998037;28;20536;-57
2023/03/30 13:27:36;;;;;;;17.15;5.63;;;;;;;;;;4997878;28;20042;-57
2023/03/30 13:30:08;;;;;;;17.75;4.65;;;;;;;;;;4998308;28;20049;-58
2023/03/30 13:32:53;;;;;;;21.38;5.65;;;;;;;;;;4996142;28;20074;-58
2023/03/30 13:35:19;;;;;;;9.52;3.45;;;;;;;;;;4996536;28;20046;-58
2023/03/30 13:37:51;;;;;;;10.90;2.97;;;;;;;;;;4996938;28;20046;-58
2023/03/30 13:40:25;;;;;;;12.68;4.03;;;;;;;;;;4997435;28;20049;-58
2023/03/30 13:42:51;;;;;;;10.85;2.80;;;;;;;;;;4997504;28;21102;-57
2023/03/30 13:45:30;;;;;;;15.05;3.45;;;;;;;;;;5003826;28;20943;-57
2023/03/30 13:48:01;;;;;;;16.52;4.68;;;;;;;;;;5013648;28;20050;-58
2023/03/30 13:50:30;;;;;;;11.13;2.85;;;;;;;;;;5015713;28;20045;-58
2023/03/30 13:52:57;;;;;;;8.43;2.80;;;;;;;;;;5014579;28;20071;-58
2023/03/30 13:55:23;;;;;;;13.02;3.05;;;;;;;;;;5014950;28;20141;-57
2023/03/30 13:57:53;;;;;;;10.32;2.72;;;;;;;;;;5007591;28;20092;-58
2023/03/30 14:00:20;;;;;;;8.27;2.35;;;;;;;;;;5013888;28;20042;-58
2023/03/30 14:02:48;;;;;;;7.70;3.38;;;;;;;;;;5014497;28;20050;-57
2023/03/30 14:05:21;;;;;;;6.85;2.30;;;;;;;;;;5013546;28;20054;-57
2023/03/30 14:07:47;;;;;;;13.52;2.50;;;;;;;;;;5013671;28;20044;-57
2023/03/30 14:10:16;;;;;;;10.48;2.47;;;;;;;;;;5015164;28;20049;-57
2023/03/30 14:12:43;;;;;;;12.95;2.72;;;;;;;;;;5013491;28;20042;-57
2023/03/30 14:15:16;;;;;;;7.47;2.10;;;;;;;;;;5015835;28;20042;-57
2023/03/30 14:17:46;;;;;;;6.75;2.33;;;;;;;;;;5012213;28;20181;-57
2023/03/30 14:20:40;;;;;;;7.72;1.90;;;;;;;;;;5014489;28;20436;-57
2023/03/30 14:23:06;;;;;;;8.50;1.98;;;;;;;;;;5013607;28;20537;-57
2023/03/30 14:25:35;;;;;;;5.68;2.63;;;;;;;;;;5012867;28;20042;-57
2023/03/30 14:28:13;;;;;;;9.23;2.72;;;;;;;;;;5014948;28;20070;-57
2023/03/30 14:30:47;;;;;;;14.13;2.63;;;;;;;;;;5014838;28;20046;-58
2023/03/30 14:33:13;;;;;;;8.52;2.22;;;;;;;;;;5012949;28;20124;-57
2023/03/30 14:35:44;;;;;;;9.95;2.35;;;;;;;;;;5014241;28;20034;-57
2023/03/30 14:38:14;;;;;;;7.60;2.10;;;;;;;;;;5013233;28;20052;-57
2023/03/30 14:40:40;;;;;;;9.15;4.93;;;;;;;;;;5014162;28;20047;-57
2023/03/30 14:43:10;;;;;;;13.75;5.18;;;;;;;;;;5011845;28;20089;-57
2023/03/30 14:45:36;;;;;;;6.78;2.53;;;;;;;;;;5013752;28;20045;-57
2023/03/30 14:48:03;;;;;;;8.98;3.53;;;;;;;;;;5011841;28;20042;-57
2023/03/30 14:50:29;;;;;;;6.93;2.20;;;;;;;;;;5014295;28;20046;-57
2023/03/30 14:52:55;;;;;;;10.55;2.63;;;;;;;;;;5017905;28;20045;-57
2023/03/30 14:55:25;;;;;;;10.45;2.67;;;;;;;;;;5016851;28;20032;-57
2023/03/30 14:57:51;;;;;;;13.35;2.25;;;;;;;;;;5018151;28;20073;-58
2023/03/30 15:00:19;;;;;;;7.32;2.85;;;;;;;;;;5016082;28;20073;-58